sensor_id;sensor_type;location;lat;lon;timestamp;temperature;humidity
81935;DHT22;71405;47.674;-2.050;2023-12-29T00:01:33;18.60;57.40
81935;DHT22;71405;47.674;-2.050;2023-12-29T00:03:58;18.70;57.40
81935;DHT22;71405;47.674;-2.050;2023-12-29T00:06:24;18.70;57.40
81935;DHT22;71405;47.674;-2.050;2023-12-29T00:08:50;18.70;57.40
81935;DHT22;71405;47.674;-2.050;2023-12-29T00:11:22;18.70;57.40
81935;DHT22;71405;47.674;-2.050;2023-12-29T00:13:48;18.70;57.40
81935;DHT22;71405;47.674;-2.050;2023-12-29T00:16:15;18.70;57.40
81935;DHT22;71405;47.674;-2.050;2023-12-29T00:18:41;18.70;57.40
81935;DHT22;71405;47.674;-2.050;2023-12-29T00:21:06;18.70;57.50
81935;DHT22;71405;47.674;-2.050;2023-12-29T00:23:33;18.70;57.50
81935;DHT22;71405;47.674;-2.050;2023-12-29T00:25:58;18.70;57.40
81935;DHT22;71405;47.674;-2.050;2023-12-29T00:28:24;18.70;57.50
81935;DHT22;71405;47.674;-2.050;2023-12-29T00:30:49;18.70;57.50
81935;DHT22;71405;47.674;-2.050;2023-12-29T00:33:15;18.60;57.60
81935;DHT22;71405;47.674;-2.050;2023-12-29T00:35:41;18.70;57.70
81935;DHT22;71405;47.674;-2.050;2023-12-29T00:38:07;18.60;57.60
81935;DHT22;71405;47.674;-2.050;2023-12-29T00:40:33;18.60;57.70
81935;DHT22;71405;47.674;-2.050;2023-12-29T00:43:00;18.60;57.70
81935;DHT22;71405;47.674;-2.050;2023-12-29T00:45:26;18.60;57.60
81935;DHT22;71405;47.674;-2.050;2023-12-29T00:47:54;18.60;57.60
81935;DHT22;71405;47.674;-2.050;2023-12-29T00:50:20;18.60;57.60
81935;DHT22;71405;47.674;-2.050;2023-12-29T00:52:46;18.60;57.60
81935;DHT22;71405;47.674;-2.050;2023-12-29T00:55:12;18.60;57.60
81935;DHT22;71405;47.674;-2.050;2023-12-29T00:57:37;18.60;57.60
81935;DHT22;71405;47.674;-2.050;2023-12-29T01:00:03;18.60;57.70
81935;DHT22;71405;47.674;-2.050;2023-12-29T01:02:29;18.60;60.90
81935;DHT22;71405;47.674;-2.050;2023-12-29T01:04:55;18.70;60.90
81935;DHT22;71405;47.674;-2.050;2023-12-29T01:07:20;18.70;60.30
81935;DHT22;71405;47.674;-2.050;2023-12-29T01:09:46;18.80;59.90
81935;DHT22;71405;47.674;-2.050;2023-12-29T01:12:12;18.80;59.60
81935;DHT22;71405;47.674;-2.050;2023-12-29T01:14:37;18.80;59.50
81935;DHT22;71405;47.674;-2.050;2023-12-29T01:17:03;18.80;59.30
81935;DHT22;71405;47.674;-2.050;2023-12-29T01:19:29;18.80;59.20
81935;DHT22;71405;47.674;-2.050;2023-12-29T01:21:54;18.80;59.10
81935;DHT22;71405;47.674;-2.050;2023-12-29T01:24:20;18.80;59.10
81935;DHT22;71405;47.674;-2.050;2023-12-29T01:26:46;18.70;58.90
81935;DHT22;71405;47.674;-2.050;2023-12-29T01:29:11;18.70;58.90
81935;DHT22;71405;47.674;-2.050;2023-12-29T01:31:37;18.80;58.80
81935;DHT22;71405;47.674;-2.050;2023-12-29T01:34:03;18.70;58.80
81935;DHT22;71405;47.674;-2.050;2023-12-29T01:36:28;18.70;58.80
81935;DHT22;71405;47.674;-2.050;2023-12-29T01:38:54;18.70;58.80
81935;DHT22;71405;47.674;-2.050;2023-12-29T01:41:20;18.70;58.70
81935;DHT22;71405;47.674;-2.050;2023-12-29T01:44:19;18.60;58.70
81935;DHT22;71405;47.674;-2.050;2023-12-29T01:46:46;18.60;58.70
81935;DHT22;71405;47.674;-2.050;2023-12-29T01:49:15;18.60;58.60
81935;DHT22;71405;47.674;-2.050;2023-12-29T01:51:42;18.60;58.50
81935;DHT22;71405;47.674;-2.050;2023-12-29T01:54:09;18.60;58.50
81935;DHT22;71405;47.674;-2.050;2023-12-29T01:56:35;18.60;58.50
81935;DHT22;71405;47.674;-2.050;2023-12-29T01:59:01;18.60;58.40
81935;DHT22;71405;47.674;-2.050;2023-12-29T02:01:27;18.60;58.30
81935;DHT22;71405;47.674;-2.050;2023-12-29T02:03:53;18.60;58.30
81935;DHT22;71405;47.674;-2.050;2023-12-29T02:06:19;18.60;58.20
81935;DHT22;71405;47.674;-2.050;2023-12-29T02:08:47;18.60;58.20
81935;DHT22;71405;47.674;-2.050;2023-12-29T02:11:14;18.60;58.20
81935;DHT22;71405;47.674;-2.050;2023-12-29T02:13:39;18.60;58.20
81935;DHT22;71405;47.674;-2.050;2023-12-29T02:16:09;18.60;58.20
81935;DHT22;71405;47.674;-2.050;2023-12-29T02:18:37;18.50;58.20
81935;DHT22;71405;47.674;-2.050;2023-12-29T02:21:04;18.50;58.20
81935;DHT22;71405;47.674;-2.050;2023-12-29T02:23:30;18.60;58.20
81935;DHT22;71405;47.674;-2.050;2023-12-29T02:26:02;18.60;58.10
81935;DHT22;71405;47.674;-2.050;2023-12-29T02:28:34;18.60;58.10
81935;DHT22;71405;47.674;-2.050;2023-12-29T02:31:09;18.50;58.10
81935;DHT22;71405;47.674;-2.050;2023-12-29T02:33:40;18.50;58.10
81935;DHT22;71405;47.674;-2.050;2023-12-29T02:36:07;18.60;58.10
81935;DHT22;71405;47.674;-2.050;2023-12-29T02:38:33;18.50;58.10
81935;DHT22;71405;47.674;-2.050;2023-12-29T02:40:59;18.50;58.10
81935;DHT22;71405;47.674;-2.050;2023-12-29T02:43:25;18.50;58.00
81935;DHT22;71405;47.674;-2.050;2023-12-29T02:45:51;18.60;57.90
81935;DHT22;71405;47.674;-2.050;2023-12-29T02:48:16;18.60;57.90
81935;DHT22;71405;47.674;-2.050;2023-12-29T02:50:42;18.50;57.90
81935;DHT22;71405;47.674;-2.050;2023-12-29T02:53:08;18.50;57.90
81935;DHT22;71405;47.674;-2.050;2023-12-29T02:55:34;18.50;58.00
81935;DHT22;71405;47.674;-2.050;2023-12-29T02:57:59;18.50;57.90
81935;DHT22;71405;47.674;-2.050;2023-12-29T03:00:25;18.50;57.90
81935;DHT22;71405;47.674;-2.050;2023-12-29T03:02:51;18.50;58.00
81935;DHT22;71405;47.674;-2.050;2023-12-29T03:05:16;18.50;58.00
81935;DHT22;71405;47.674;-2.050;2023-12-29T03:07:42;18.50;58.00
81935;DHT22;71405;47.674;-2.050;2023-12-29T03:10:08;18.50;58.00
81935;DHT22;71405;47.674;-2.050;2023-12-29T03:12:34;18.50;58.00
81935;DHT22;71405;47.674;-2.050;2023-12-29T03:15:00;18.40;58.00
81935;DHT22;71405;47.674;-2.050;2023-12-29T03:17:25;18.50;58.00
81935;DHT22;71405;47.674;-2.050;2023-12-29T03:19:52;18.40;58.00
81935;DHT22;71405;47.674;-2.050;2023-12-29T03:22:18;18.50;57.90
81935;DHT22;71405;47.674;-2.050;2023-12-29T03:24:44;18.50;57.80
81935;DHT22;71405;47.674;-2.050;2023-12-29T03:27:10;18.50;57.90
81935;DHT22;71405;47.674;-2.050;2023-12-29T03:29:36;18.50;57.90
81935;DHT22;71405;47.674;-2.050;2023-12-29T03:32:02;18.50;57.90
81935;DHT22;71405;47.674;-2.050;2023-12-29T03:34:28;18.50;57.80
81935;DHT22;71405;47.674;-2.050;2023-12-29T03:36:53;18.50;57.80
81935;DHT22;71405;47.674;-2.050;2023-12-29T03:39:19;18.50;57.90
81935;DHT22;71405;47.674;-2.050;2023-12-29T03:41:45;18.50;57.90
81935;DHT22;71405;47.674;-2.050;2023-12-29T03:44:11;18.50;57.90
81935;DHT22;71405;47.674;-2.050;2023-12-29T03:46:36;18.50;58.00
81935;DHT22;71405;47.674;-2.050;2023-12-29T03:49:02;18.50;57.90
81935;DHT22;71405;47.674;-2.050;2023-12-29T03:51:28;18.50;57.90
81935;DHT22;71405;47.674;-2.050;2023-12-29T03:53:54;18.50;57.90
81935;DHT22;71405;47.674;-2.050;2023-12-29T03:56:20;18.50;57.90
81935;DHT22;71405;47.674;-2.050;2023-12-29T03:58:46;18.50;57.90
81935;DHT22;71405;47.674;-2.050;2023-12-29T04:01:16;18.50;57.80
81935;DHT22;71405;47.674;-2.050;2023-12-29T04:03:42;18.50;57.80
81935;DHT22;71405;47.674;-2.050;2023-12-29T04:06:08;18.50;57.90
81935;DHT22;71405;47.674;-2.050;2023-12-29T04:08:35;18.60;57.40
81935;DHT22;71405;47.674;-2.050;2023-12-29T04:11:01;18.80;57.20
81935;DHT22;71405;47.674;-2.050;2023-12-29T04:13:27;19.10;56.60
81935;DHT22;71405;47.674;-2.050;2023-12-29T04:15:53;19.30;55.80
81935;DHT22;71405;47.674;-2.050;2023-12-29T04:18:22;19.40;55.40
81935;DHT22;71405;47.674;-2.050;2023-12-29T04:20:48;19.30;55.40
81935;DHT22;71405;47.674;-2.050;2023-12-29T04:23:14;19.30;55.40
81935;DHT22;71405;47.674;-2.050;2023-12-29T04:25:40;19.20;56.10
81935;DHT22;71405;47.674;-2.050;2023-12-29T04:28:09;19.20;56.10
81935;DHT22;71405;47.674;-2.050;2023-12-29T04:30:35;19.20;55.70
81935;DHT22;71405;47.674;-2.050;2023-12-29T04:33:00;19.20;55.80
81935;DHT22;71405;47.674;-2.050;2023-12-29T04:35:26;19.30;55.40
81935;DHT22;71405;47.674;-2.050;2023-12-29T04:37:52;19.30;55.20
81935;DHT22;71405;47.674;-2.050;2023-12-29T04:40:18;19.30;55.10
81935;DHT22;71405;47.674;-2.050;2023-12-29T04:42:44;19.40;55.10
81935;DHT22;71405;47.674;-2.050;2023-12-29T04:45:10;19.40;55.20
81935;DHT22;71405;47.674;-2.050;2023-12-29T04:47:36;19.40;54.90
81935;DHT22;71405;47.674;-2.050;2023-12-29T04:50:02;19.40;55.00
81935;DHT22;71405;47.674;-2.050;2023-12-29T04:52:27;19.40;55.00
81935;DHT22;71405;47.674;-2.050;2023-12-29T04:54:53;19.50;55.00
81935;DHT22;71405;47.674;-2.050;2023-12-29T04:57:19;19.50;54.90
81935;DHT22;71405;47.674;-2.050;2023-12-29T04:59:44;19.50;54.90
81935;DHT22;71405;47.674;-2.050;2023-12-29T05:02:10;19.60;54.70
81935;DHT22;71405;47.674;-2.050;2023-12-29T05:04:35;19.60;54.80
81935;DHT22;71405;47.674;-2.050;2023-12-29T05:07:05;19.60;55.00
81935;DHT22;71405;47.674;-2.050;2023-12-29T05:09:30;19.60;54.70
81935;DHT22;71405;47.674;-2.050;2023-12-29T05:11:56;19.60;54.60
81935;DHT22;71405;47.674;-2.050;2023-12-29T05:14:22;19.60;54.60
81935;DHT22;71405;47.674;-2.050;2023-12-29T05:16:47;19.60;54.80
81935;DHT22;71405;47.674;-2.050;2023-12-29T05:19:13;19.60;54.60
81935;DHT22;71405;47.674;-2.050;2023-12-29T05:21:39;19.60;54.60
81935;DHT22;71405;47.674;-2.050;2023-12-29T05:24:04;19.70;54.60
81935;DHT22;71405;47.674;-2.050;2023-12-29T05:26:31;19.70;54.50
81935;DHT22;71405;47.674;-2.050;2023-12-29T05:28:57;19.70;54.50
81935;DHT22;71405;47.674;-2.050;2023-12-29T05:31:23;19.70;54.50
81935;DHT22;71405;47.674;-2.050;2023-12-29T05:33:48;19.70;54.50
81935;DHT22;71405;47.674;-2.050;2023-12-29T05:36:14;19.70;54.40
81935;DHT22;71405;47.674;-2.050;2023-12-29T05:38:40;19.70;54.40
81935;DHT22;71405;47.674;-2.050;2023-12-29T05:41:06;19.70;54.40
81935;DHT22;71405;47.674;-2.050;2023-12-29T05:43:33;19.70;54.50
81935;DHT22;71405;47.674;-2.050;2023-12-29T05:46:00;19.70;54.40
81935;DHT22;71405;47.674;-2.050;2023-12-29T05:48:26;19.80;54.40
81935;DHT22;71405;47.674;-2.050;2023-12-29T05:50:52;19.80;54.30
81935;DHT22;71405;47.674;-2.050;2023-12-29T05:53:17;19.80;54.40
81935;DHT22;71405;47.674;-2.050;2023-12-29T05:55:44;19.80;54.20
81935;DHT22;71405;47.674;-2.050;2023-12-29T05:58:10;19.80;54.30
81935;DHT22;71405;47.674;-2.050;2023-12-29T06:00:37;19.80;54.20
81935;DHT22;71405;47.674;-2.050;2023-12-29T06:03:03;19.80;54.20
81935;DHT22;71405;47.674;-2.050;2023-12-29T06:05:32;19.80;54.20
81935;DHT22;71405;47.674;-2.050;2023-12-29T06:07:58;19.80;54.30
81935;DHT22;71405;47.674;-2.050;2023-12-29T06:10:23;19.70;54.60
81935;DHT22;71405;47.674;-2.050;2023-12-29T06:12:49;19.60;54.80
81935;DHT22;71405;47.674;-2.050;2023-12-29T06:15:15;19.50;55.00
81935;DHT22;71405;47.674;-2.050;2023-12-29T06:17:41;19.40;55.30
81935;DHT22;71405;47.674;-2.050;2023-12-29T06:20:08;19.40;55.60
81935;DHT22;71405;47.674;-2.050;2023-12-29T06:22:39;19.30;55.60
81935;DHT22;71405;47.674;-2.050;2023-12-29T06:25:09;19.30;55.70
81935;DHT22;71405;47.674;-2.050;2023-12-29T06:27:36;19.20;55.80
81935;DHT22;71405;47.674;-2.050;2023-12-29T06:30:12;19.20;56.00
81935;DHT22;71405;47.674;-2.050;2023-12-29T06:32:38;19.10;56.20
81935;DHT22;71405;47.674;-2.050;2023-12-29T06:35:04;19.10;56.30
81935;DHT22;71405;47.674;-2.050;2023-12-29T06:37:31;19.10;56.60
81935;DHT22;71405;47.674;-2.050;2023-12-29T06:39:56;19.10;56.70
81935;DHT22;71405;47.674;-2.050;2023-12-29T06:42:22;19.00;56.90
81935;DHT22;71405;47.674;-2.050;2023-12-29T06:44:48;19.00;56.90
81935;DHT22;71405;47.674;-2.050;2023-12-29T06:47:14;19.00;57.10
81935;DHT22;71405;47.674;-2.050;2023-12-29T06:49:40;19.00;57.00
81935;DHT22;71405;47.674;-2.050;2023-12-29T06:52:06;18.90;57.00
81935;DHT22;71405;47.674;-2.050;2023-12-29T06:54:33;18.90;56.90
81935;DHT22;71405;47.674;-2.050;2023-12-29T06:56:58;18.90;57.00
81935;DHT22;71405;47.674;-2.050;2023-12-29T06:59:24;18.90;57.10
81935;DHT22;71405;47.674;-2.050;2023-12-29T07:01:49;18.90;57.40
81935;DHT22;71405;47.674;-2.050;2023-12-29T07:04:15;18.90;57.60
81935;DHT22;71405;47.674;-2.050;2023-12-29T07:06:41;18.80;57.50
81935;DHT22;71405;47.674;-2.050;2023-12-29T07:09:07;18.80;57.70
81935;DHT22;71405;47.674;-2.050;2023-12-29T07:11:34;18.80;57.50
81935;DHT22;71405;47.674;-2.050;2023-12-29T07:14:00;18.80;57.90
81935;DHT22;71405;47.674;-2.050;2023-12-29T07:16:26;18.80;57.60
81935;DHT22;71405;47.674;-2.050;2023-12-29T07:18:51;18.80;57.80
81935;DHT22;71405;47.674;-2.050;2023-12-29T07:21:17;18.70;57.90
81935;DHT22;71405;47.674;-2.050;2023-12-29T07:23:44;18.70;58.00
81935;DHT22;71405;47.674;-2.050;2023-12-29T07:26:09;18.70;58.00
81935;DHT22;71405;47.674;-2.050;2023-12-29T07:28:35;18.70;58.10
81935;DHT22;71405;47.674;-2.050;2023-12-29T07:31:01;18.70;59.00
81935;DHT22;71405;47.674;-2.050;2023-12-29T07:33:27;18.80;59.00
81935;DHT22;71405;47.674;-2.050;2023-12-29T07:35:53;18.70;59.90
81935;DHT22;71405;47.674;-2.050;2023-12-29T07:38:19;18.70;60.70
81935;DHT22;71405;47.674;-2.050;2023-12-29T07:40:45;18.70;61.30
81935;DHT22;71405;47.674;-2.050;2023-12-29T07:43:13;18.70;61.60
81935;DHT22;71405;47.674;-2.050;2023-12-29T07:45:38;18.60;61.40
81935;DHT22;71405;47.674;-2.050;2023-12-29T07:48:05;18.60;61.60
81935;DHT22;71405;47.674;-2.050;2023-12-29T07:50:30;18.60;61.60
81935;DHT22;71405;47.674;-2.050;2023-12-29T07:52:56;18.60;61.80
81935;DHT22;71405;47.674;-2.050;2023-12-29T07:55:22;18.60;61.70
81935;DHT22;71405;47.674;-2.050;2023-12-29T07:57:47;18.50;61.60
81935;DHT22;71405;47.674;-2.050;2023-12-29T08:00:16;18.50;61.60
81935;DHT22;71405;47.674;-2.050;2023-12-29T08:02:42;18.50;61.60
81935;DHT22;71405;47.674;-2.050;2023-12-29T08:05:07;18.50;61.50
81935;DHT22;71405;47.674;-2.050;2023-12-29T08:07:37;18.50;61.50
81935;DHT22;71405;47.674;-2.050;2023-12-29T08:10:06;18.50;61.40
81935;DHT22;71405;47.674;-2.050;2023-12-29T08:12:32;18.50;61.40
81935;DHT22;71405;47.674;-2.050;2023-12-29T08:15:01;18.40;61.40
81935;DHT22;71405;47.674;-2.050;2023-12-29T08:17:28;18.40;61.10
81935;DHT22;71405;47.674;-2.050;2023-12-29T08:19:54;18.40;61.20
81935;DHT22;71405;47.674;-2.050;2023-12-29T08:22:20;18.40;61.20
81935;DHT22;71405;47.674;-2.050;2023-12-29T08:24:46;18.40;61.10
81935;DHT22;71405;47.674;-2.050;2023-12-29T08:27:12;18.40;61.00
81935;DHT22;71405;47.674;-2.050;2023-12-29T08:29:38;18.40;60.90
81935;DHT22;71405;47.674;-2.050;2023-12-29T08:32:04;18.40;60.70
81935;DHT22;71405;47.674;-2.050;2023-12-29T08:34:30;18.50;60.60
81935;DHT22;71405;47.674;-2.050;2023-12-29T08:36:56;18.50;60.50
81935;DHT22;71405;47.674;-2.050;2023-12-29T08:39:22;18.50;60.40
81935;DHT22;71405;47.674;-2.050;2023-12-29T08:41:48;18.50;60.30
81935;DHT22;71405;47.674;-2.050;2023-12-29T08:44:17;18.50;60.40
81935;DHT22;71405;47.674;-2.050;2023-12-29T08:46:43;18.50;60.40
81935;DHT22;71405;47.674;-2.050;2023-12-29T08:49:08;18.50;60.50
81935;DHT22;71405;47.674;-2.050;2023-12-29T08:51:34;18.40;60.40
81935;DHT22;71405;47.674;-2.050;2023-12-29T08:54:00;18.40;60.40
81935;DHT22;71405;47.674;-2.050;2023-12-29T08:56:26;18.40;60.40
81935;DHT22;71405;47.674;-2.050;2023-12-29T08:58:52;18.40;60.30
81935;DHT22;71405;47.674;-2.050;2023-12-29T09:01:18;18.40;60.30
81935;DHT22;71405;47.674;-2.050;2023-12-29T09:03:44;18.40;60.20
81935;DHT22;71405;47.674;-2.050;2023-12-29T09:06:10;18.40;60.30
81935;DHT22;71405;47.674;-2.050;2023-12-29T09:08:36;18.40;60.20
81935;DHT22;71405;47.674;-2.050;2023-12-29T09:11:02;18.50;60.10
81935;DHT22;71405;47.674;-2.050;2023-12-29T09:13:28;18.50;60.00
81935;DHT22;71405;47.674;-2.050;2023-12-29T09:15:55;18.50;59.90
81935;DHT22;71405;47.674;-2.050;2023-12-29T09:18:20;18.50;59.80
81935;DHT22;71405;47.674;-2.050;2023-12-29T09:20:46;18.50;59.90
81935;DHT22;71405;47.674;-2.050;2023-12-29T09:23:13;18.50;59.80
81935;DHT22;71405;47.674;-2.050;2023-12-29T09:25:39;18.50;59.90
81935;DHT22;71405;47.674;-2.050;2023-12-29T09:28:05;18.40;59.90
81935;DHT22;71405;47.674;-2.050;2023-12-29T09:30:30;18.50;59.80
81935;DHT22;71405;47.674;-2.050;2023-12-29T09:32:56;18.40;59.80
81935;DHT22;71405;47.674;-2.050;2023-12-29T09:35:22;18.40;59.90
81935;DHT22;71405;47.674;-2.050;2023-12-29T09:37:48;18.40;59.80
81935;DHT22;71405;47.674;-2.050;2023-12-29T09:40:17;18.50;59.80
81935;DHT22;71405;47.674;-2.050;2023-12-29T09:42:46;18.40;59.80
81935;DHT22;71405;47.674;-2.050;2023-12-29T09:45:12;18.40;59.80
81935;DHT22;71405;47.674;-2.050;2023-12-29T09:47:42;18.50;59.70
81935;DHT22;71405;47.674;-2.050;2023-12-29T09:50:11;18.50;59.60
81935;DHT22;71405;47.674;-2.050;2023-12-29T09:52:40;18.50;59.60
81935;DHT22;71405;47.674;-2.050;2023-12-29T09:55:09;18.50;59.50
81935;DHT22;71405;47.674;-2.050;2023-12-29T09:57:37;18.50;59.50
81935;DHT22;71405;47.674;-2.050;2023-12-29T10:00:04;18.50;59.40
81935;DHT22;71405;47.674;-2.050;2023-12-29T10:02:30;18.50;59.40
81935;DHT22;71405;47.674;-2.050;2023-12-29T10:04:56;18.50;59.40
81935;DHT22;71405;47.674;-2.050;2023-12-29T10:07:25;18.50;59.60
81935;DHT22;71405;47.674;-2.050;2023-12-29T10:09:57;18.70;59.10
81935;DHT22;71405;47.674;-2.050;2023-12-29T10:12:24;18.90;58.50
81935;DHT22;71405;47.674;-2.050;2023-12-29T10:20:21;19.40;56.70
81935;DHT22;71405;47.674;-2.050;2023-12-29T10:22:52;19.40;56.40
81935;DHT22;71405;47.674;-2.050;2023-12-29T10:25:22;19.30;56.50
81935;DHT22;71405;47.674;-2.050;2023-12-29T10:27:48;19.30;56.60
81935;DHT22;71405;47.674;-2.050;2023-12-29T10:30:14;19.30;56.70
81935;DHT22;71405;47.674;-2.050;2023-12-29T10:32:40;19.30;56.60
81935;DHT22;71405;47.674;-2.050;2023-12-29T10:35:10;19.40;56.70
81935;DHT22;71405;47.674;-2.050;2023-12-29T10:37:37;19.40;56.60
81935;DHT22;71405;47.674;-2.050;2023-12-29T10:40:03;19.40;56.40
81935;DHT22;71405;47.674;-2.050;2023-12-29T10:42:29;19.50;56.20
81935;DHT22;71405;47.674;-2.050;2023-12-29T10:45:09;19.50;56.10
81935;DHT22;71405;47.674;-2.050;2023-12-29T10:47:35;19.50;56.10
81935;DHT22;71405;47.674;-2.050;2023-12-29T10:50:02;19.50;56.00
81935;DHT22;71405;47.674;-2.050;2023-12-29T10:52:32;19.60;56.00
81935;DHT22;71405;47.674;-2.050;2023-12-29T10:55:08;19.60;55.90
81935;DHT22;71405;47.674;-2.050;2023-12-29T10:57:35;19.60;56.00
81935;DHT22;71405;47.674;-2.050;2023-12-29T11:00:00;19.60;55.90
81935;DHT22;71405;47.674;-2.050;2023-12-29T11:02:27;19.70;55.90
81935;DHT22;71405;47.674;-2.050;2023-12-29T11:05:07;19.70;55.90
81935;DHT22;71405;47.674;-2.050;2023-12-29T11:07:41;19.70;55.80
81935;DHT22;71405;47.674;-2.050;2023-12-29T11:10:08;19.70;55.70
81935;DHT22;71405;47.674;-2.050;2023-12-29T11:12:37;19.70;55.70
81935;DHT22;71405;47.674;-2.050;2023-12-29T11:15:05;19.70;55.70
81935;DHT22;71405;47.674;-2.050;2023-12-29T11:17:33;19.80;55.60
81935;DHT22;71405;47.674;-2.050;2023-12-29T11:20:00;19.80;55.70
81935;DHT22;71405;47.674;-2.050;2023-12-29T11:22:30;19.80;55.60
81935;DHT22;71405;47.674;-2.050;2023-12-29T11:24:56;19.90;55.40
81935;DHT22;71405;47.674;-2.050;2023-12-29T11:27:27;19.90;55.50
81935;DHT22;71405;47.674;-2.050;2023-12-29T11:29:55;19.90;55.40
81935;DHT22;71405;47.674;-2.050;2023-12-29T11:32:26;20.00;55.60
81935;DHT22;71405;47.674;-2.050;2023-12-29T11:34:56;20.10;55.80
81935;DHT22;71405;47.674;-2.050;2023-12-29T11:39:57;20.10;56.20
81935;DHT22;71405;47.674;-2.050;2023-12-29T11:42:33;20.10;56.20
81935;DHT22;71405;47.674;-2.050;2023-12-29T11:47:51;20.10;56.40
81935;DHT22;71405;47.674;-2.050;2023-12-29T11:50:33;20.10;56.30
81935;DHT22;71405;47.674;-2.050;2023-12-29T11:52:59;20.10;56.30
81935;DHT22;71405;47.674;-2.050;2023-12-29T11:55:37;20.10;56.50
81935;DHT22;71405;47.674;-2.050;2023-12-29T11:58:04;20.10;56.50
81935;DHT22;71405;47.674;-2.050;2023-12-29T12:03:23;20.10;56.20
81935;DHT22;71405;47.674;-2.050;2023-12-29T12:05:50;20.00;56.20
81935;DHT22;71405;47.674;-2.050;2023-12-29T12:08:35;20.00;56.30
81935;DHT22;71405;47.674;-2.050;2023-12-29T12:13:55;19.80;56.70
81935;DHT22;71405;47.674;-2.050;2023-12-29T12:16:50;19.70;56.90
81935;DHT22;71405;47.674;-2.050;2023-12-29T12:19:17;19.60;57.10
81935;DHT22;71405;47.674;-2.050;2023-12-29T12:21:46;19.60;57.30
81935;DHT22;71405;47.674;-2.050;2023-12-29T12:24:15;19.50;57.50
81935;DHT22;71405;47.674;-2.050;2023-12-29T12:26:43;19.40;57.70
81935;DHT22;71405;47.674;-2.050;2023-12-29T12:29:09;19.40;58.00
81935;DHT22;71405;47.674;-2.050;2023-12-29T12:31:35;19.30;58.10
81935;DHT22;71405;47.674;-2.050;2023-12-29T12:34:01;19.30;58.20
81935;DHT22;71405;47.674;-2.050;2023-12-29T12:36:27;19.30;58.30
81935;DHT22;71405;47.674;-2.050;2023-12-29T12:38:54;19.20;58.30
81935;DHT22;71405;47.674;-2.050;2023-12-29T12:41:24;19.20;58.50
81935;DHT22;71405;47.674;-2.050;2023-12-29T12:44:28;19.20;58.50
81935;DHT22;71405;47.674;-2.050;2023-12-29T12:46:57;19.20;58.60
81935;DHT22;71405;47.674;-2.050;2023-12-29T12:49:24;19.20;58.60
81935;DHT22;71405;47.674;-2.050;2023-12-29T12:51:50;19.10;58.70
81935;DHT22;71405;47.674;-2.050;2023-12-29T12:54:18;19.10;58.80
81935;DHT22;71405;47.674;-2.050;2023-12-29T12:56:45;19.10;58.80
81935;DHT22;71405;47.674;-2.050;2023-12-29T12:59:12;19.10;58.70
81935;DHT22;71405;47.674;-2.050;2023-12-29T13:01:38;19.10;58.70
81935;DHT22;71405;47.674;-2.050;2023-12-29T13:04:05;19.20;58.50
81935;DHT22;71405;47.674;-2.050;2023-12-29T13:06:32;19.20;58.60
81935;DHT22;71405;47.674;-2.050;2023-12-29T13:08:59;19.20;58.60
81935;DHT22;71405;47.674;-2.050;2023-12-29T13:11:25;19.10;58.70
81935;DHT22;71405;47.674;-2.050;2023-12-29T13:13:51;19.10;58.90
81935;DHT22;71405;47.674;-2.050;2023-12-29T13:18:55;19.00;59.00
81935;DHT22;71405;47.674;-2.050;2023-12-29T13:21:21;19.00;59.10
81935;DHT22;71405;47.674;-2.050;2023-12-29T13:23:47;19.00;59.10
81935;DHT22;71405;47.674;-2.050;2023-12-29T13:26:13;18.90;59.10
81935;DHT22;71405;47.674;-2.050;2023-12-29T13:28:40;18.90;59.10
81935;DHT22;71405;47.674;-2.050;2023-12-29T13:31:08;19.00;59.10
81935;DHT22;71405;47.674;-2.050;2023-12-29T13:34:06;19.00;59.10
81935;DHT22;71405;47.674;-2.050;2023-12-29T13:36:43;19.00;59.00
81935;DHT22;71405;47.674;-2.050;2023-12-29T13:41:47;19.00;59.00
81935;DHT22;71405;47.674;-2.050;2023-12-29T13:44:14;18.90;59.10
81935;DHT22;71405;47.674;-2.050;2023-12-29T13:46:40;18.90;59.10
81935;DHT22;71405;47.674;-2.050;2023-12-29T13:49:07;18.90;59.10
81935;DHT22;71405;47.674;-2.050;2023-12-29T13:51:33;18.80;59.20
81935;DHT22;71405;47.674;-2.050;2023-12-29T13:54:02;18.90;59.20
81935;DHT22;71405;47.674;-2.050;2023-12-29T13:56:29;18.80;59.30
81935;DHT22;71405;47.674;-2.050;2023-12-29T13:58:54;18.80;59.40
81935;DHT22;71405;47.674;-2.050;2023-12-29T14:01:20;18.80;59.40
81935;DHT22;71405;47.674;-2.050;2023-12-29T14:03:59;18.80;59.50
81935;DHT22;71405;47.674;-2.050;2023-12-29T14:06:31;18.80;59.50
81935;DHT22;71405;47.674;-2.050;2023-12-29T14:08:57;18.80;59.50
81935;DHT22;71405;47.674;-2.050;2023-12-29T14:11:23;18.70;59.50
81935;DHT22;71405;47.674;-2.050;2023-12-29T14:13:49;18.80;59.60
81935;DHT22;71405;47.674;-2.050;2023-12-29T14:16:15;18.70;59.60
81935;DHT22;71405;47.674;-2.050;2023-12-29T14:21:26;18.70;59.70
81935;DHT22;71405;47.674;-2.050;2023-12-29T14:26:28;18.70;59.70
81935;DHT22;71405;47.674;-2.050;2023-12-29T14:29:09;18.60;59.80
81935;DHT22;71405;47.674;-2.050;2023-12-29T14:34:08;19.00;59.60
81935;DHT22;71405;47.674;-2.050;2023-12-29T14:36:35;18.60;60.00
81935;DHT22;71405;47.674;-2.050;2023-12-29T14:39:01;18.60;60.00
81935;DHT22;71405;47.674;-2.050;2023-12-29T14:41:28;18.60;60.10
81935;DHT22;71405;47.674;-2.050;2023-12-29T14:43:54;18.60;60.10
81935;DHT22;71405;47.674;-2.050;2023-12-29T14:46:20;18.60;60.00
81935;DHT22;71405;47.674;-2.050;2023-12-29T14:48:46;18.60;60.00
81935;DHT22;71405;47.674;-2.050;2023-12-29T14:51:12;18.60;59.90
81935;DHT22;71405;47.674;-2.050;2023-12-29T14:53:38;18.60;59.90
81935;DHT22;71405;47.674;-2.050;2023-12-29T14:56:04;18.60;59.80
81935;DHT22;71405;47.674;-2.050;2023-12-29T14:58:30;18.60;59.90
81935;DHT22;71405;47.674;-2.050;2023-12-29T15:00:59;18.60;59.80
81935;DHT22;71405;47.674;-2.050;2023-12-29T15:03:24;18.60;59.90
81935;DHT22;71405;47.674;-2.050;2023-12-29T15:05:51;18.60;60.00
81935;DHT22;71405;47.674;-2.050;2023-12-29T15:08:16;18.50;60.00
81935;DHT22;71405;47.674;-2.050;2023-12-29T15:10:43;18.50;60.10
81935;DHT22;71405;47.674;-2.050;2023-12-29T15:13:10;18.50;60.10
81935;DHT22;71405;47.674;-2.050;2023-12-29T15:15:36;18.50;60.10
81935;DHT22;71405;47.674;-2.050;2023-12-29T15:18:03;18.50;60.10
81935;DHT22;71405;47.674;-2.050;2023-12-29T15:20:28;18.50;60.10
81935;DHT22;71405;47.674;-2.050;2023-12-29T15:22:54;18.60;60.10
81935;DHT22;71405;47.674;-2.050;2023-12-29T15:25:24;18.60;60.00
81935;DHT22;71405;47.674;-2.050;2023-12-29T15:27:51;18.60;60.00
81935;DHT22;71405;47.674;-2.050;2023-12-29T15:30:17;18.60;60.00
81935;DHT22;71405;47.674;-2.050;2023-12-29T15:32:42;18.60;59.90
81935;DHT22;71405;47.674;-2.050;2023-12-29T15:35:09;18.60;60.00
81935;DHT22;71405;47.674;-2.050;2023-12-29T15:37:34;18.60;60.00
81935;DHT22;71405;47.674;-2.050;2023-12-29T15:40:01;18.60;60.00
81935;DHT22;71405;47.674;-2.050;2023-12-29T15:42:26;18.50;60.10
81935;DHT22;71405;47.674;-2.050;2023-12-29T15:44:52;18.50;60.00